createdAt,value
2018-01-19T00:02:21.941Z,24.93
2018-01-19T00:04:48.313Z,24.40
2018-01-19T00:07:14.665Z,24.00
2018-01-19T00:09:41.068Z,18.87
2018-01-19T00:12:07.409Z,18.73
2018-01-19T00:14:33.765Z,15.53
2018-01-19T00:17:00.113Z,12.87
2018-01-19T00:19:26.461Z,11.97
2018-01-19T00:21:52.852Z,12.53
2018-01-19T00:24:19.221Z,10.73
2018-01-19T00:26:45.572Z,10.57
2018-01-19T00:29:11.996Z,12.63
2018-01-19T00:31:38.358Z,12.07
2018-01-19T00:34:04.693Z,12.63
2018-01-19T00:36:31.048Z,10.40
2018-01-19T00:38:57.432Z,8.97
2018-01-19T00:41:23.801Z,6.77
2018-01-19T00:43:50.163Z,5.70
2018-01-19T00:46:16.548Z,5.37
2018-01-19T00:48:42.884Z,5.90
2018-01-19T00:51:09.268Z,5.47
2018-01-19T00:53:35.635Z,5.33
2018-01-19T00:56:02.049Z,5.30
2018-01-19T00:58:28.433Z,4.87
2018-01-19T01:00:54.820Z,4.47
2018-01-19T01:03:21.160Z,4.00
2018-01-19T01:05:47.592Z,3.50
2018-01-19T01:08:14.020Z,3.13
2018-01-19T01:10:40.431Z,3.30
2018-01-19T01:13:06.806Z,2.20
2018-01-19T01:15:33.140Z,2.40
2018-01-19T01:17:59.544Z,2.60
2018-01-19T01:20:25.928Z,3.60
2018-01-19T01:22:52.293Z,3.63
2018-01-19T01:25:18.693Z,3.57
2018-01-19T01:27:45.068Z,4.20
2018-01-19T01:30:11.441Z,4.03
2018-01-19T01:32:37.792Z,4.40
2018-01-19T01:35:04.223Z,4.60
2018-01-19T01:37:30.575Z,5.00
2018-01-19T01:39:56.936Z,6.90
2018-01-19T01:42:23.428Z,11.23
2018-01-19T01:44:49.756Z,11.23
2018-01-19T01:47:16.105Z,14.87
2018-01-19T01:49:42.500Z,16.03
2018-01-19T01:52:08.897Z,15.03
2018-01-19T01:54:35.280Z,15.30
2018-01-19T01:57:01.729Z,14.67
2018-01-19T01:59:28.097Z,14.90
2018-01-19T02:01:54.483Z,13.37
2018-01-19T02:04:20.856Z,12.47
2018-01-19T02:06:47.232Z,13.10
2018-01-19T02:09:13.587Z,14.07
2018-01-19T02:11:39.985Z,14.77
2018-01-19T02:14:06.328Z,13.90
2018-01-19T02:16:32.718Z,14.37
2018-01-19T02:18:59.196Z,14.27
2018-01-19T02:21:25.548Z,14.57
2018-01-19T02:23:51.917Z,14.77
2018-01-19T02:26:18.289Z,15.77
2018-01-19T02:28:44.660Z,16.03
2018-01-19T02:31:11.104Z,14.57
2018-01-19T02:33:37.449Z,14.47
2018-01-19T02:36:03.797Z,14.30
2018-01-19T02:38:30.180Z,14.40
2018-01-19T02:40:56.562Z,14.30
2018-01-19T02:43:22.900Z,15.10
2018-01-19T02:45:49.260Z,16.50
2018-01-19T02:48:15.620Z,18.30
2018-01-19T02:50:41.988Z,18.67
2018-01-19T02:53:08.353Z,18.43
2018-01-19T02:55:34.780Z,18.77
2018-01-19T02:58:01.161Z,19.50
2018-01-19T03:00:27.536Z,18.90
2018-01-19T03:02:53.901Z,19.30
2018-01-19T03:05:20.324Z,17.57
2018-01-19T03:07:46.744Z,21.47
2018-01-19T03:10:13.157Z,15.03
2018-01-19T03:12:39.564Z,14.33
2018-01-19T03:15:06.000Z,14.67
2018-01-19T03:17:32.328Z,12.37
2018-01-19T03:19:58.700Z,13.03
2018-01-19T03:22:25.107Z,12.70
2018-01-19T03:24:51.492Z,12.50
2018-01-19T03:27:17.881Z,13.13
2018-01-19T03:29:44.285Z,13.67
2018-01-19T03:32:10.733Z,15.03
2018-01-19T03:34:37.172Z,15.20
2018-01-19T03:37:03.508Z,15.40
2018-01-19T03:39:29.861Z,15.50
2018-01-19T03:41:56.291Z,15.00
2018-01-19T03:44:22.653Z,14.17
2018-01-19T03:46:49.031Z,14.77
2018-01-19T03:49:15.407Z,15.73
2018-01-19T03:51:41.768Z,15.53
2018-01-19T03:54:08.304Z,15.37
2018-01-19T03:56:34.691Z,15.10
2018-01-19T03:59:01.068Z,15.77
2018-01-19T04:01:27.484Z,16.13
2018-01-19T04:03:53.834Z,16.40
2018-01-19T04:06:20.213Z,16.47
2018-01-19T04:08:46.644Z,17.93
2018-01-19T04:11:12.985Z,16.63
2018-01-19T04:13:39.356Z,15.23
2018-01-19T04:16:05.744Z,16.10
2018-01-19T04:18:32.145Z,15.20
2018-01-19T04:20:58.508Z,16.77
2018-01-19T04:23:24.897Z,15.37
2018-01-19T04:25:51.380Z,14.83
2018-01-19T04:28:17.756Z,16.63
2018-01-19T04:30:44.132Z,20.97
2018-01-19T04:33:10.578Z,24.57
2018-01-19T04:35:37.054Z,25.40
2018-01-19T04:38:03.553Z,20.87
2018-01-19T04:40:29.982Z,22.53
2018-01-19T04:42:56.436Z,22.83
2018-01-19T04:45:22.814Z,24.00
2018-01-19T04:47:49.197Z,23.50
2018-01-19T04:50:15.624Z,21.90
2018-01-19T04:52:41.990Z,22.87
2018-01-19T04:55:08.384Z,23.87
2018-01-19T04:57:34.808Z,24.43
2018-01-19T05:00:01.184Z,32.00
2018-01-19T05:02:27.570Z,30.13
2018-01-19T05:04:53.973Z,27.90
2018-01-19T05:07:20.337Z,30.87
2018-01-19T05:09:46.756Z,34.50
2018-01-19T05:12:13.110Z,41.60
2018-01-19T05:14:39.478Z,52.67
2018-01-19T05:17:05.848Z,53.00
2018-01-19T05:19:32.264Z,54.57
2018-01-19T05:21:58.576Z,65.50
2018-01-19T05:24:25.068Z,123.80
2018-01-19T05:26:51.440Z,93.50
2018-01-19T05:29:17.793Z,69.00
2018-01-19T05:31:44.200Z,45.50
2018-01-19T05:34:10.544Z,46.97
2018-01-19T05:36:36.888Z,47.73
2018-01-19T05:39:03.376Z,80.97
2018-01-19T05:41:29.776Z,71.40
2018-01-19T05:43:56.223Z,73.90
2018-01-19T05:46:22.627Z,79.87
2018-01-19T05:48:49.011Z,70.53
2018-01-19T05:51:15.404Z,78.23
2018-01-19T05:53:41.768Z,65.30
2018-01-19T05:56:08.130Z,65.20
2018-01-19T05:58:34.516Z,61.47
2018-01-19T06:01:00.967Z,55.03
2018-01-19T06:03:27.326Z,62.37
2018-01-19T06:05:53.801Z,72.73
2018-01-19T06:08:20.196Z,74.60
2018-01-19T06:10:46.565Z,82.83
2018-01-19T06:13:12.936Z,90.67
2018-01-19T06:15:39.338Z,105.53
2018-01-19T06:18:05.719Z,105.07
2018-01-19T06:20:32.257Z,113.10
2018-01-19T06:22:58.608Z,126.30
2018-01-19T06:25:24.924Z,121.13
2018-01-19T06:27:51.298Z,81.33
2018-01-19T06:30:17.780Z,76.90
2018-01-19T06:32:44.217Z,71.60
2018-01-19T06:35:10.593Z,70.03
2018-01-19T06:37:36.951Z,72.80
2018-01-19T06:40:03.364Z,68.43
2018-01-19T06:42:29.729Z,75.37
2018-01-19T06:44:56.254Z,71.47
2018-01-19T06:47:22.849Z,76.73
2018-01-19T06:49:49.347Z,80.47
2018-01-19T06:52:15.845Z,102.77
2018-01-19T06:54:42.342Z,119.07
2018-01-19T06:57:08.759Z,121.50
2018-01-19T06:59:35.240Z,125.73
2018-01-19T07:02:01.676Z,118.93
2018-01-19T07:04:28.045Z,115.57
2018-01-19T07:06:54.478Z,113.27
2018-01-19T07:09:20.880Z,119.13
2018-01-19T07:11:47.269Z,117.67
2018-01-19T07:14:13.679Z,121.17
2018-01-19T07:16:40.051Z,141.07
2018-01-19T07:19:06.424Z,134.07
2018-01-19T07:21:32.808Z,133.30
2018-01-19T07:23:59.160Z,124.47
2018-01-19T07:26:25.525Z,139.43
2018-01-19T07:28:52.073Z,138.00
2018-01-19T07:31:18.413Z,148.37
2018-01-19T07:33:44.765Z,145.83
2018-01-19T07:36:11.155Z,138.57
2018-01-19T07:38:37.528Z,145.33
2018-01-19T07:41:03.905Z,136.83
2018-01-19T07:43:30.425Z,127.80
2018-01-19T07:45:56.825Z,110.30
2018-01-19T07:48:23.174Z,101.60
2018-01-19T07:50:49.591Z,91.93
2018-01-19T07:53:15.945Z,97.57
2018-01-19T07:55:42.468Z,89.47
2018-01-19T07:58:08.853Z,82.03
2018-01-19T08:00:42.154Z,63.47
2018-01-19T08:03:08.600Z,55.60
2018-01-19T08:05:35.209Z,40.57
2018-01-19T08:08:01.604Z,42.83
2018-01-19T08:10:27.981Z,44.37
2018-01-19T08:12:54.320Z,41.67
2018-01-19T08:15:20.714Z,43.73
2018-01-19T08:17:47.057Z,43.93
2018-01-19T08:20:13.423Z,48.03
2018-01-19T08:22:39.828Z,47.97
2018-01-19T08:25:06.164Z,51.37
2018-01-19T08:27:32.540Z,49.53
2018-01-19T08:29:58.925Z,39.23
2018-01-19T08:32:25.244Z,43.10
2018-01-19T08:34:51.611Z,40.63
2018-01-19T08:37:17.940Z,35.03
2018-01-19T08:39:44.357Z,30.60
2018-01-19T08:42:10.705Z,44.43
2018-01-19T08:44:37.408Z,34.37
2018-01-19T08:47:03.757Z,39.87
2018-01-19T08:49:30.108Z,20.17
2018-01-19T08:51:56.480Z,19.33
2018-01-19T08:54:22.872Z,36.60
2018-01-19T08:56:49.197Z,23.20
2018-01-19T08:59:15.801Z,39.50
2018-01-19T09:01:42.232Z,23.33
2018-01-19T09:04:08.611Z,25.20
2018-01-19T09:06:34.989Z,30.83
2018-01-19T09:09:01.318Z,35.87
2018-01-19T09:11:27.779Z,19.17
2018-01-19T09:13:54.149Z,28.60
2018-01-19T09:16:20.553Z,24.60
2018-01-19T09:18:46.904Z,16.37
2018-01-19T09:21:13.232Z,17.07
2018-01-19T09:23:39.617Z,18.80
2018-01-19T09:26:05.948Z,20.77
2018-01-19T09:28:32.304Z,21.07
2018-01-19T09:30:58.677Z,19.87
2018-01-19T09:33:25.032Z,19.73
2018-01-19T09:35:51.572Z,24.77
2018-01-19T09:38:18.080Z,28.70
2018-01-19T09:40:44.444Z,17.07
2018-01-19T09:43:10.808Z,17.50
2018-01-19T09:45:37.290Z,10.93
2018-01-19T09:48:03.723Z,9.20
2018-01-19T09:50:30.097Z,17.53
2018-01-19T09:52:56.492Z,13.93
2018-01-19T09:55:22.908Z,4.90
2018-01-19T09:57:49.253Z,16.63
2018-01-19T10:00:15.660Z,9.90
2018-01-19T10:02:42.005Z,8.50
2018-01-19T10:05:08.329Z,7.93
2018-01-19T10:07:34.747Z,9.30
2018-01-19T10:10:01.098Z,10.63
2018-01-19T10:12:27.484Z,10.13
2018-01-19T10:14:53.977Z,15.43
2018-01-19T10:17:20.297Z,16.10
2018-01-19T10:19:46.648Z,15.27
2018-01-19T10:22:13.020Z,13.47
2018-01-19T10:24:39.361Z,16.80
2018-01-19T10:27:05.857Z,7.77
2018-01-19T10:29:32.233Z,7.50
2018-01-19T10:31:58.609Z,6.00
2018-01-19T10:34:24.999Z,7.07
2018-01-19T10:36:51.512Z,6.67
2018-01-19T10:39:18.004Z,8.63
2018-01-19T10:41:44.380Z,5.77
2018-01-19T10:44:10.697Z,5.47
2018-01-19T10:46:37.024Z,12.00
2018-01-19T10:49:03.473Z,15.27
2018-01-19T10:51:29.825Z,14.27
2018-01-19T10:53:56.277Z,10.90
2018-01-19T10:56:22.609Z,11.47
2018-01-19T10:58:48.944Z,23.70
2018-01-19T11:01:15.328Z,49.93
2018-01-19T11:03:41.676Z,29.40
2018-01-19T11:06:08.016Z,21.10
2018-01-19T11:08:34.413Z,8.77
2018-01-19T11:11:00.757Z,9.43
2018-01-19T11:13:27.072Z,9.50
2018-01-19T11:15:53.416Z,7.40
2018-01-19T11:18:19.765Z,7.60
2018-01-19T11:20:46.137Z,5.57
2018-01-19T11:23:12.461Z,8.83
2018-01-19T11:25:38.829Z,6.63
2018-01-19T11:28:05.264Z,5.40
2018-01-19T11:30:31.768Z,8.50
2018-01-19T11:32:58.125Z,8.80
2018-01-19T11:35:24.535Z,6.37
2018-01-19T11:37:50.950Z,6.20
2018-01-19T11:40:17.440Z,5.10
2018-01-19T11:42:43.801Z,5.67
2018-01-19T11:45:10.155Z,7.00
2018-01-19T11:47:36.569Z,5.37
2018-01-19T11:50:03.128Z,7.40
2018-01-19T11:52:29.451Z,5.43
2018-01-19T11:54:55.887Z,5.87
2018-01-19T11:57:22.217Z,6.17
2018-01-19T11:59:48.599Z,8.17
2018-01-19T12:02:15.013Z,7.30
2018-01-19T12:04:41.366Z,5.70
2018-01-19T12:07:07.729Z,8.27
2018-01-19T12:09:34.176Z,6.33
2018-01-19T12:12:00.544Z,5.20
2018-01-19T12:14:26.940Z,8.77
2018-01-19T12:16:53.288Z,7.37
2018-01-19T12:19:19.632Z,5.70
2018-01-19T12:21:46.045Z,6.13
2018-01-19T12:24:12.429Z,6.97
2018-01-19T12:26:38.856Z,6.70
2018-01-19T12:29:05.234Z,7.00
2018-01-19T12:31:31.682Z,4.80
2018-01-19T12:33:58.040Z,5.73
2018-01-19T12:36:24.452Z,6.43
2018-01-19T12:38:50.840Z,5.57
2018-01-19T12:41:17.195Z,7.10
2018-01-19T12:43:43.565Z,6.00
2018-01-19T12:46:09.921Z,7.30
2018-01-19T12:48:36.261Z,7.67
2018-01-19T12:51:02.641Z,8.50
2018-01-19T12:53:28.968Z,7.47
2018-01-19T12:55:55.316Z,6.63
2018-01-19T12:58:21.680Z,5.77
2018-01-19T13:00:48.042Z,6.00
2018-01-19T13:03:14.424Z,6.13
2018-01-19T13:05:40.748Z,5.43
2018-01-19T13:08:07.118Z,6.07
2018-01-19T13:10:33.480Z,6.10
2018-01-19T13:12:59.836Z,5.87
2018-01-19T13:15:27.180Z,12.30
2018-01-19T13:17:53.544Z,8.60
2018-01-19T13:20:19.864Z,8.03
2018-01-19T13:22:46.228Z,7.03
2018-01-19T13:25:12.584Z,8.10
2018-01-19T13:27:39.028Z,8.10
2018-01-19T13:30:05.505Z,7.40
2018-01-19T13:32:31.960Z,6.73
2018-01-19T13:34:58.484Z,7.43
2018-01-19T13:37:24.828Z,9.90
2018-01-19T13:39:51.172Z,8.43
2018-01-19T13:42:17.652Z,8.93
2018-01-19T13:44:44.117Z,8.77
2018-01-19T13:47:10.641Z,9.43
2018-01-19T13:49:37.228Z,7.00
2018-01-19T13:52:03.609Z,6.83
2018-01-19T13:54:29.944Z,6.80
2018-01-19T13:56:56.297Z,8.37
2018-01-19T13:59:22.900Z,11.33
2018-01-19T14:01:49.256Z,7.37
2018-01-19T14:04:15.629Z,7.27
2018-01-19T14:06:42.022Z,7.93
2018-01-19T14:09:08.353Z,8.87
2018-01-19T14:11:35.015Z,7.70
2018-01-19T14:14:01.436Z,9.37
2018-01-19T14:16:27.805Z,13.97
2018-01-19T14:18:54.164Z,18.63
2018-01-19T14:21:20.526Z,19.30
2018-01-19T14:23:46.940Z,20.23
2018-01-19T14:26:13.296Z,18.17
2018-01-19T14:28:39.769Z,12.80
2018-01-19T14:31:06.168Z,14.03
2018-01-19T14:33:32.511Z,15.63
2018-01-19T14:35:58.893Z,12.70
2018-01-19T14:38:25.290Z,14.77
2018-01-19T14:40:51.668Z,21.33
2018-01-19T14:43:18.009Z,21.90
2018-01-19T14:45:44.426Z,20.77
2018-01-19T14:48:10.826Z,16.47
2018-01-19T14:50:37.176Z,14.93
2018-01-19T14:53:03.529Z,15.93
2018-01-19T14:55:29.906Z,19.03
2018-01-19T14:57:56.312Z,18.10
2018-01-19T15:00:22.700Z,21.37
2018-01-19T15:02:49.085Z,29.70
2018-01-19T15:05:15.445Z,27.87
2018-01-19T15:07:41.873Z,30.90
2018-01-19T15:10:08.482Z,27.60
2018-01-19T15:12:34.828Z,28.43
2018-01-19T15:15:01.216Z,25.67
2018-01-19T15:17:27.649Z,25.23
2018-01-19T15:19:54.184Z,61.33
2018-01-19T15:22:20.544Z,41.97
2018-01-19T15:24:46.925Z,37.33
2018-01-19T15:27:13.313Z,25.73
2018-01-19T15:29:39.760Z,25.23
2018-01-19T15:32:06.191Z,30.77
2018-01-19T15:34:32.581Z,25.27
2018-01-19T15:36:59.062Z,26.47
2018-01-19T15:39:25.420Z,24.07
2018-01-19T15:41:51.824Z,37.33
2018-01-19T15:44:18.217Z,36.40
2018-01-19T15:46:44.857Z,52.33
2018-01-19T15:49:11.292Z,34.23
2018-01-19T15:51:37.631Z,31.50
2018-01-19T15:54:04.000Z,29.63
2018-01-19T15:56:30.527Z,30.07
2018-01-19T15:58:56.953Z,32.90
2018-01-19T16:01:23.348Z,31.97
2018-01-19T16:03:49.752Z,36.53
2018-01-19T16:06:16.133Z,45.03
2018-01-19T16:08:42.504Z,47.33
2018-01-19T16:11:08.897Z,41.90
2018-01-19T16:13:35.284Z,41.10
2018-01-19T16:16:01.624Z,44.97
2018-01-19T16:18:28.032Z,49.20
2018-01-19T16:20:54.380Z,41.87
2018-01-19T16:23:20.770Z,38.10
2018-01-19T16:25:47.112Z,32.83
2018-01-19T16:28:13.492Z,32.60
2018-01-19T16:30:39.956Z,30.07
2018-01-19T16:33:06.310Z,26.93
2018-01-19T16:35:32.681Z,26.50
2018-01-19T16:37:59.113Z,26.70
2018-01-19T16:40:25.516Z,26.00
2018-01-19T16:42:51.901Z,22.87
2018-01-19T16:45:18.258Z,23.73
2018-01-19T16:47:44.657Z,21.90
2018-01-19T16:50:11.054Z,21.37
2018-01-19T16:52:37.447Z,20.97
2018-01-19T16:55:03.848Z,24.37
2018-01-19T16:57:31.029Z,21.57
2018-01-19T16:59:57.392Z,22.10
2018-01-19T17:02:23.749Z,27.87
2018-01-19T17:04:50.180Z,31.77
2018-01-19T17:07:16.607Z,30.23
2018-01-19T17:09:42.989Z,31.97
2018-01-19T17:12:09.422Z,32.07
2018-01-19T17:14:35.756Z,34.23
2018-01-19T17:17:02.246Z,42.43
2018-01-19T17:19:28.693Z,38.97
2018-01-19T17:21:55.045Z,42.77
2018-01-19T17:24:21.405Z,41.20
2018-01-19T17:26:47.799Z,42.73
2018-01-19T17:29:14.167Z,41.80
2018-01-19T17:31:41.594Z,42.40
2018-01-19T17:34:07.964Z,41.50
2018-01-19T17:36:34.325Z,42.87
2018-01-19T17:39:00.736Z,51.03
2018-01-19T17:41:27.140Z,41.63
2018-01-19T17:43:53.808Z,37.13
2018-01-19T17:46:20.205Z,31.83
2018-01-19T17:48:46.616Z,29.83
2018-01-19T17:51:13.850Z,31.20
2018-01-19T17:53:40.467Z,31.90
2018-01-19T17:56:06.917Z,40.27
2018-01-19T17:58:33.256Z,42.17
2018-01-19T18:00:59.605Z,45.80
2018-01-19T18:03:26.027Z,40.40
2018-01-19T18:05:52.408Z,40.17
2018-01-19T18:08:18.793Z,39.43
2018-01-19T18:10:46.074Z,40.30
2018-01-19T18:13:12.429Z,43.47
2018-01-19T18:15:38.798Z,51.03
2018-01-19T18:18:05.194Z,52.33
2018-01-19T18:20:31.580Z,53.50
2018-01-19T18:22:58.032Z,53.67
2018-01-19T18:25:24.433Z,55.10
2018-01-19T18:27:50.927Z,54.43
2018-01-19T18:30:17.297Z,62.57
2018-01-19T18:32:43.689Z,59.17
2018-01-19T18:35:11.084Z,61.80
2018-01-19T18:37:37.533Z,66.93
2018-01-19T18:40:03.989Z,73.90
2018-01-19T18:42:30.367Z,73.63
2018-01-19T18:44:56.728Z,75.13
2018-01-19T18:47:23.162Z,80.67
2018-01-19T18:49:49.540Z,84.30
2018-01-19T18:52:15.923Z,93.13
2018-01-19T18:54:42.316Z,94.17
2018-01-19T18:57:09.329Z,99.77
2018-01-19T18:59:35.697Z,99.67
2018-01-19T19:02:02.105Z,104.27
2018-01-19T19:04:28.494Z,107.57
2018-01-19T19:06:54.940Z,144.13
2018-01-19T19:09:21.333Z,145.27
2018-01-19T19:11:47.706Z,129.30
2018-01-19T19:14:14.059Z,140.43
2018-01-19T19:16:40.489Z,136.57
2018-01-19T19:19:06.869Z,142.50
2018-01-19T19:21:33.261Z,134.80
2018-01-19T19:23:59.689Z,130.50
2018-01-19T19:26:26.044Z,133.00
2018-01-19T19:28:52.388Z,127.20
2018-01-19T19:31:18.866Z,128.40
2018-01-19T19:33:45.310Z,128.57
2018-01-19T19:36:11.709Z,129.73
2018-01-19T19:38:38.138Z,133.40
2018-01-19T19:41:04.513Z,127.97
2018-01-19T19:43:30.921Z,121.40
2018-01-19T19:45:57.413Z,121.13
2018-01-19T19:48:23.771Z,121.50
2018-01-19T19:50:50.169Z,109.67
2018-01-19T19:53:16.613Z,100.83
2018-01-19T19:55:43.008Z,103.93
2018-01-19T19:58:09.433Z,104.47
2018-01-19T20:00:35.829Z,105.60
2018-01-19T20:03:02.255Z,106.70
2018-01-19T20:05:28.640Z,111.07
2018-01-19T20:07:55.041Z,104.10
2018-01-19T20:10:21.406Z,100.00
2018-01-19T20:12:47.805Z,86.90
2018-01-19T20:15:14.255Z,81.67
2018-01-19T20:17:40.624Z,75.60
2018-01-19T20:20:06.997Z,68.90
2018-01-19T20:22:33.380Z,64.23
2018-01-19T20:24:59.753Z,65.80
2018-01-19T20:27:26.129Z,73.60
2018-01-19T20:29:52.557Z,77.07
2018-01-19T20:32:19.815Z,79.73
2018-01-19T20:34:46.165Z,80.13
2018-01-19T20:37:12.541Z,78.70
2018-01-19T20:39:38.891Z,80.13
2018-01-19T20:42:05.265Z,79.03
2018-01-19T20:44:31.653Z,80.93
2018-01-19T20:46:58.053Z,78.63
2018-01-19T20:49:24.981Z,76.97
2018-01-19T20:51:51.375Z,76.37
2018-01-19T20:54:17.721Z,78.23
2018-01-19T20:56:44.069Z,83.90
2018-01-19T20:59:10.481Z,86.73
2018-01-19T21:01:36.837Z,87.40
2018-01-19T21:04:03.860Z,89.23
2018-01-19T21:06:30.225Z,95.93
2018-01-19T21:08:56.786Z,96.50
2018-01-19T21:11:23.137Z,96.83
2018-01-19T21:13:49.533Z,101.17
2018-01-19T21:16:15.909Z,99.23
2018-01-19T21:18:42.276Z,93.43
2018-01-19T21:21:08.709Z,87.43
2018-01-19T21:23:35.065Z,83.27
2018-01-19T21:26:01.410Z,76.87
2018-01-19T21:28:27.841Z,76.87
2018-01-19T21:30:54.213Z,76.13
2018-01-19T21:33:20.545Z,68.37
2018-01-19T21:35:46.921Z,69.83
2018-01-19T21:38:13.278Z,71.37
2018-01-19T21:40:39.665Z,74.47
2018-01-19T21:43:06.085Z,74.37
2018-01-19T21:45:32.449Z,73.67
2018-01-19T21:47:58.789Z,70.70
2018-01-19T21:50:25.199Z,75.00
2018-01-19T21:52:51.557Z,75.30
2018-01-19T21:55:17.908Z,73.93
2018-01-19T21:57:44.373Z,75.70
2018-01-19T22:00:10.752Z,76.97
2018-01-19T22:02:37.189Z,75.70
2018-01-19T22:05:03.608Z,77.50
2018-01-19T22:07:30.002Z,81.23
2018-01-19T22:09:56.430Z,81.50
2018-01-19T22:12:22.821Z,82.50
2018-01-19T22:14:49.197Z,83.33
2018-01-19T22:17:15.613Z,83.37
2018-01-19T22:19:42.004Z,87.07
2018-01-19T22:22:08.357Z,90.87
2018-01-19T22:24:34.789Z,91.80
2018-01-19T22:27:01.152Z,88.33
2018-01-19T22:29:27.536Z,84.00
2018-01-19T22:31:53.965Z,88.70
2018-01-19T22:34:20.326Z,92.03
2018-01-19T22:36:46.762Z,88.03
2018-01-19T22:39:13.217Z,88.73
2018-01-19T22:41:39.573Z,93.03
2018-01-19T22:44:05.961Z,93.97
2018-01-19T22:46:32.439Z,96.13
2018-01-19T22:48:58.812Z,94.07
2018-01-19T22:51:25.225Z,99.37
2018-01-19T22:53:51.637Z,96.47
2018-01-19T22:56:18.125Z,94.57
2018-01-19T22:58:44.549Z,96.37
2018-01-19T23:01:11.034Z,96.37
2018-01-19T23:03:37.389Z,96.87
2018-01-19T23:06:03.784Z,97.17
2018-01-19T23:08:30.211Z,97.47
2018-01-19T23:10:56.610Z,98.07
2018-01-19T23:13:23.152Z,99.67
2018-01-19T23:15:49.512Z,93.87
2018-01-19T23:18:15.889Z,93.57
2018-01-19T23:20:42.308Z,95.17
2018-01-19T23:23:08.764Z,91.77
2018-01-19T23:25:35.135Z,91.83
2018-01-19T23:28:01.557Z,89.70
2018-01-19T23:30:27.916Z,93.80
2018-01-19T23:32:54.325Z,94.37
2018-01-19T23:35:20.802Z,93.80
2018-01-19T23:37:47.249Z,93.57
2018-01-19T23:40:13.618Z,94.40
2018-01-19T23:42:40.084Z,85.13
2018-01-19T23:45:06.462Z,76.30
2018-01-19T23:47:32.841Z,73.37
2018-01-19T23:49:59.273Z,69.77
2018-01-19T23:52:25.637Z,66.90
2018-01-19T23:54:52.007Z,63.73
2018-01-19T23:57:18.509Z,64.03
2018-01-19T23:59:44.876Z,64.03
